sensor_id;sensor_type;location;lat;lon;timestamp;pressure;altitude;pressure_sealevel;temperature;humidity
62544;BME280;48597;49.030;1.822;2023-02-21T00:00:06;101475.25;;;19.58;38.86
62544;BME280;48597;49.030;1.822;2023-02-21T00:02:51;101465.78;;;19.61;38.82
62544;BME280;48597;49.030;1.822;2023-02-21T00:05:34;101470.28;;;19.62;38.78
62544;BME280;48597;49.030;1.822;2023-02-21T00:08:19;101472.28;;;19.66;38.85
62544;BME280;48597;49.030;1.822;2023-02-21T00:11:02;101466.97;;;19.64;38.75
62544;BME280;48597;49.030;1.822;2023-02-21T00:13:46;101469.41;;;19.66;38.80
62544;BME280;48597;49.030;1.822;2023-02-21T00:16:30;101470.97;;;19.70;38.74
62544;BME280;48597;49.030;1.822;2023-02-21T00:19:14;101472.50;;;19.75;38.67
62544;BME280;48597;49.030;1.822;2023-02-21T00:21:58;101466.78;;;19.75;38.66
62544;BME280;48597;49.030;1.822;2023-02-21T00:24:42;101457.47;;;19.71;38.73
62544;BME280;48597;49.030;1.822;2023-02-21T00:27:26;101460.34;;;19.71;38.84
62544;BME280;48597;49.030;1.822;2023-02-21T00:30:10;101457.47;;;19.71;38.77
62544;BME280;48597;49.030;1.822;2023-02-21T00:32:54;101454.63;;;19.71;38.88
62544;BME280;48597;49.030;1.822;2023-02-21T00:35:38;101445.66;;;19.69;38.86
62544;BME280;48597;49.030;1.822;2023-02-21T00:38:22;101445.66;;;19.69;38.79
62544;BME280;48597;49.030;1.822;2023-02-21T00:41:06;101451.38;;;19.69;38.81
62544;BME280;48597;49.030;1.822;2023-02-21T00:43:50;101447.28;;;19.70;38.67
62544;BME280;48597;49.030;1.822;2023-02-21T00:46:33;101442.38;;;19.70;38.69
62544;BME280;48597;49.030;1.822;2023-02-21T00:49:17;101444.44;;;19.70;38.73
62544;BME280;48597;49.030;1.822;2023-02-21T00:52:01;101439.50;;;19.70;38.61
62544;BME280;48597;49.030;1.822;2023-02-21T00:54:45;101433.38;;;19.72;38.79
62544;BME280;48597;49.030;1.822;2023-02-21T00:57:29;101431.31;;;19.72;38.65
62544;BME280;48597;49.030;1.822;2023-02-21T01:00:17;101427.22;;;19.73;38.48
62544;BME280;48597;49.030;1.822;2023-02-21T01:03:02;101426.69;;;19.78;38.47
62544;BME280;48597;49.030;1.822;2023-02-21T01:05:46;101431.59;;;19.78;38.47
62544;BME280;48597;49.030;1.822;2023-02-21T01:08:30;101431.59;;;19.78;38.54
62544;BME280;48597;49.030;1.822;2023-02-21T01:11:15;101423.34;;;19.83;38.38
62544;BME280;48597;49.030;1.822;2023-02-21T01:13:59;101424.88;;;19.88;38.57
62544;BME280;48597;49.030;1.822;2023-02-21T01:16:43;101416.66;;;19.90;38.55
62544;BME280;48597;49.030;1.822;2023-02-21T01:19:27;101415.84;;;19.89;38.43
62544;BME280;48597;49.030;1.822;2023-02-21T01:22:11;101416.66;;;19.90;38.43
62544;BME280;48597;49.030;1.822;2023-02-21T01:24:54;101416.53;;;19.97;38.46
62544;BME280;48597;49.030;1.822;2023-02-21T01:27:38;101418.22;;;19.94;38.35
62544;BME280;48597;49.030;1.822;2023-02-21T01:30:22;101415.28;;;19.98;38.40
62544;BME280;48597;49.030;1.822;2023-02-21T01:33:06;101407.34;;;20.06;38.24
62544;BME280;48597;49.030;1.822;2023-02-21T01:35:50;101411.84;;;20.07;38.15
62544;BME280;48597;49.030;1.822;2023-02-21T01:38:34;101403.75;;;20.02;38.06
62544;BME280;48597;49.030;1.822;2023-02-21T01:41:18;101401.41;;;19.96;38.24
62544;BME280;48597;49.030;1.822;2023-02-21T01:44:05;101402.59;;;19.99;38.45
62544;BME280;48597;49.030;1.822;2023-02-21T01:46:50;101405.47;;;19.99;38.50
62544;BME280;48597;49.030;1.822;2023-02-21T01:49:34;101401.84;;;19.95;38.29
62544;BME280;48597;49.030;1.822;2023-02-21T01:52:19;101396.13;;;19.95;38.25
62544;BME280;48597;49.030;1.822;2023-02-21T01:55:03;101390.41;;;19.95;38.39
62544;BME280;48597;49.030;1.822;2023-02-21T01:57:46;101377.78;;;19.92;38.20
62544;BME280;48597;49.030;1.822;2023-02-21T02:00:31;101379.84;;;19.92;38.27
62544;BME280;48597;49.030;1.822;2023-02-21T02:03:16;101368.81;;;19.90;38.08
62544;BME280;48597;49.030;1.822;2023-02-21T02:06:06;101367.16;;;19.93;38.09
62544;BME280;48597;49.030;1.822;2023-02-21T02:08:50;101368.75;;;19.94;38.38
62544;BME280;48597;49.030;1.822;2023-02-21T02:11:57;101373.97;;;19.99;38.03
62544;BME280;48597;49.030;1.822;2023-02-21T02:14:48;101372.81;;;19.96;37.91
62544;BME280;48597;49.030;1.822;2023-02-21T02:19:54;101362.00;;;20.04;37.95
62544;BME280;48597;49.030;1.822;2023-02-21T02:32:36;101360.63;;;20.12;37.62
62544;BME280;48597;49.030;1.822;2023-02-21T02:37:40;101354.16;;;20.08;37.77
62544;BME280;48597;49.030;1.822;2023-02-21T02:48:12;101347.91;;;20.13;37.52
62544;BME280;48597;49.030;1.822;2023-02-21T02:50:39;101342.13;;;20.17;37.55
62544;BME280;48597;49.030;1.822;2023-02-21T02:53:05;101328.59;;;20.17;37.55
62544;BME280;48597;49.030;1.822;2023-02-21T02:55:33;101337.56;;;20.19;37.46
62544;BME280;48597;49.030;1.822;2023-02-21T02:57:59;101334.41;;;20.14;37.47
62544;BME280;48597;49.030;1.822;2023-02-21T03:00:26;101332.78;;;20.13;37.47
62544;BME280;48597;49.030;1.822;2023-02-21T03:15:44;101310.81;;;20.10;37.43
62544;BME280;48597;49.030;1.822;2023-02-21T03:18:14;101310.81;;;20.10;37.36
62544;BME280;48597;49.030;1.822;2023-02-21T03:20:41;101310.69;;;20.13;37.37
62544;BME280;48597;49.030;1.822;2023-02-21T03:23:08;101310.34;;;20.11;37.20
62544;BME280;48597;49.030;1.822;2023-02-21T03:25:37;101301.69;;;20.15;37.21
62544;BME280;48597;49.030;1.822;2023-02-21T03:28:03;101304.91;;;20.17;37.22
62544;BME280;48597;49.030;1.822;2023-02-21T03:30:29;101291.94;;;20.12;37.03
62544;BME280;48597;49.030;1.822;2023-02-21T03:32:55;101303.38;;;20.12;37.12
62544;BME280;48597;49.030;1.822;2023-02-21T03:35:21;101299.13;;;20.20;36.99
62544;BME280;48597;49.030;1.822;2023-02-21T03:37:49;101309.75;;;20.20;37.23
62544;BME280;48597;49.030;1.822;2023-02-21T03:40:23;101299.19;;;20.17;37.03
62544;BME280;48597;49.030;1.822;2023-02-21T03:42:50;101295.38;;;20.23;37.00
62544;BME280;48597;49.030;1.822;2023-02-21T03:45:16;101304.75;;;20.24;37.01
62544;BME280;48597;49.030;1.822;2023-02-21T03:47:42;101303.22;;;20.19;37.10
62544;BME280;48597;49.030;1.822;2023-02-21T03:50:08;101295.06;;;20.18;37.00
62544;BME280;48597;49.030;1.822;2023-02-21T03:52:33;101299.47;;;20.22;36.92
62544;BME280;48597;49.030;1.822;2023-02-21T03:54:58;101292.06;;;20.25;37.07
62544;BME280;48597;49.030;1.822;2023-02-21T03:57:24;101296.88;;;20.28;37.04
62544;BME280;48597;49.030;1.822;2023-02-21T03:59:49;101294.81;;;20.28;37.04
62544;BME280;48597;49.030;1.822;2023-02-21T04:02:15;101293.94;;;20.31;37.16
62544;BME280;48597;49.030;1.822;2023-02-21T04:04:40;101295.63;;;20.29;37.04
62544;BME280;48597;49.030;1.822;2023-02-21T04:07:05;101287.13;;;20.25;37.06
62544;BME280;48597;49.030;1.822;2023-02-21T04:09:31;101289.19;;;20.25;37.11
62544;BME280;48597;49.030;1.822;2023-02-21T04:11:57;101272.81;;;20.25;36.91
62544;BME280;48597;49.030;1.822;2023-02-21T04:14:22;101286.34;;;20.25;37.06
62544;BME280;48597;49.030;1.822;2023-02-21T04:16:48;101278.19;;;20.23;36.77
62544;BME280;48597;49.030;1.822;2023-02-21T04:19:13;101277.03;;;20.21;37.04
62544;BME280;48597;49.030;1.822;2023-02-21T04:21:38;101280.31;;;20.19;37.07
62544;BME280;48597;49.030;1.822;2023-02-21T04:24:03;101282.75;;;20.21;36.91
62544;BME280;48597;49.030;1.822;2023-02-21T04:26:29;101271.38;;;20.17;36.72
62544;BME280;48597;49.030;1.822;2023-02-21T04:28:54;101280.31;;;20.19;36.85
62544;BME280;48597;49.030;1.822;2023-02-21T04:31:20;101277.81;;;20.21;36.93
62544;BME280;48597;49.030;1.822;2023-02-21T04:33:46;101283.56;;;20.21;36.86
62544;BME280;48597;49.030;1.822;2023-02-21T04:36:11;101280.25;;;20.23;36.80
62544;BME280;48597;49.030;1.822;2023-02-21T04:38:37;101279.44;;;20.22;36.78
62544;BME280;48597;49.030;1.822;2023-02-21T04:41:03;101280.16;;;20.26;36.72
62544;BME280;48597;49.030;1.822;2023-02-21T04:43:29;101274.09;;;20.24;36.62
62544;BME280;48597;49.030;1.822;2023-02-21T04:45:54;101277.28;;;20.26;36.70
62544;BME280;48597;49.030;1.822;2023-02-21T04:48:19;101276.94;;;20.24;36.46
62544;BME280;48597;49.030;1.822;2023-02-21T04:50:44;101267.19;;;20.22;36.57
62544;BME280;48597;49.030;1.822;2023-02-21T04:53:10;101278.19;;;20.23;36.44
62544;BME280;48597;49.030;1.822;2023-02-21T04:55:35;101279.81;;;20.24;36.55
62544;BME280;48597;49.030;1.822;2023-02-21T04:58:00;101270.75;;;20.26;36.53
62544;BME280;48597;49.030;1.822;2023-02-21T05:00:25;101274.78;;;20.28;36.74
62544;BME280;48597;49.030;1.822;2023-02-21T05:02:51;101267.00;;;20.29;36.45
62544;BME280;48597;49.030;1.822;2023-02-21T05:05:16;101262.97;;;20.26;36.72
62544;BME280;48597;49.030;1.822;2023-02-21T05:07:41;101270.31;;;20.27;36.48
62544;BME280;48597;49.030;1.822;2023-02-21T05:10:07;101271.03;;;20.31;36.54
62544;BME280;48597;49.030;1.822;2023-02-21T05:12:33;101263.06;;;20.23;36.52
62544;BME280;48597;49.030;1.822;2023-02-21T05:14:59;101262.28;;;20.22;36.59
62544;BME280;48597;49.030;1.822;2023-02-21T05:17:24;101255.28;;;20.23;36.55
62544;BME280;48597;49.030;1.822;2023-02-21T05:19:50;101252.44;;;20.23;36.34
62544;BME280;48597;49.030;1.822;2023-02-21T05:22:16;101254.13;;;20.21;36.45
62544;BME280;48597;49.030;1.822;2023-02-21T05:24:44;101251.34;;;20.17;36.60
62544;BME280;48597;49.030;1.822;2023-02-21T05:27:11;101257.41;;;20.19;36.50
62544;BME280;48597;49.030;1.822;2023-02-21T05:29:41;101252.94;;;20.18;36.43
62544;BME280;48597;49.030;1.822;2023-02-21T05:32:07;101261.91;;;20.20;36.52
62544;BME280;48597;49.030;1.822;2023-02-21T05:34:33;101255.75;;;20.22;36.65
62544;BME280;48597;49.030;1.822;2023-02-21T05:36:58;101252.44;;;20.23;36.49
62544;BME280;48597;49.030;1.822;2023-02-21T05:39:23;101240.88;;;20.27;36.28
62544;BME280;48597;49.030;1.822;2023-02-21T05:41:49;101243.84;;;20.23;36.51
62544;BME280;48597;49.030;1.822;2023-02-21T05:44:15;101244.47;;;20.31;36.40
62544;BME280;48597;49.030;1.822;2023-02-21T05:46:41;101239.19;;;20.29;36.20
62544;BME280;48597;49.030;1.822;2023-02-21T05:49:06;101238.81;;;20.27;36.40
62544;BME280;48597;49.030;1.822;2023-02-21T05:51:35;101242.50;;;20.28;36.04
62544;BME280;48597;49.030;1.822;2023-02-21T05:54:01;101239.13;;;20.33;36.29
62544;BME280;48597;49.030;1.822;2023-02-21T05:56:26;101230.53;;;20.33;36.25
62544;BME280;48597;49.030;1.822;2023-02-21T05:58:52;101227.75;;;20.29;36.35
62544;BME280;48597;49.030;1.822;2023-02-21T06:01:17;101227.75;;;20.29;36.32
62544;BME280;48597;49.030;1.822;2023-02-21T06:03:42;101225.31;;;20.28;36.10
62544;BME280;48597;49.030;1.822;2023-02-21T06:06:07;101223.81;;;20.23;36.13
62544;BME280;48597;49.030;1.822;2023-02-21T06:08:40;101223.69;;;20.27;36.41
62544;BME280;48597;49.030;1.822;2023-02-21T06:11:05;101224.63;;;20.24;36.32
62544;BME280;48597;49.030;1.822;2023-02-21T06:13:31;101227.91;;;20.22;36.21
62544;BME280;48597;49.030;1.822;2023-02-21T06:15:56;101230.41;;;20.20;36.11
62544;BME280;48597;49.030;1.822;2023-02-21T06:18:21;101228.44;;;20.17;36.41
62544;BME280;48597;49.030;1.822;2023-02-21T06:20:46;101231.75;;;20.16;36.46
62544;BME280;48597;49.030;1.822;2023-02-21T06:23:12;101222.34;;;20.15;36.43
62544;BME280;48597;49.030;1.822;2023-02-21T06:25:37;101226.44;;;20.14;36.42
62544;BME280;48597;49.030;1.822;2023-02-21T06:28:02;101227.69;;;20.13;36.38
62544;BME280;48597;49.030;1.822;2023-02-21T06:30:28;101223.25;;;20.12;36.39
62544;BME280;48597;49.030;1.822;2023-02-21T06:32:54;101217.97;;;20.11;36.49
62544;BME280;48597;49.030;1.822;2023-02-21T06:35:19;101212.59;;;20.13;36.56
62544;BME280;48597;49.030;1.822;2023-02-21T06:37:44;101206.16;;;20.09;36.33
62544;BME280;48597;49.030;1.822;2023-02-21T06:40:10;101202.50;;;20.08;36.43
62544;BME280;48597;49.030;1.822;2023-02-21T06:42:35;101198.00;;;20.07;36.36
62544;BME280;48597;49.030;1.822;2023-02-21T06:45:01;101206.59;;;20.07;36.36
62544;BME280;48597;49.030;1.822;2023-02-21T06:47:26;101197.22;;;20.07;36.45
62544;BME280;48597;49.030;1.822;2023-02-21T06:49:53;101196.41;;;20.06;36.33
62544;BME280;48597;49.030;1.822;2023-02-21T06:52:18;101188.25;;;20.05;36.26
62544;BME280;48597;49.030;1.822;2023-02-21T06:54:43;101198.91;;;20.04;36.33
62544;BME280;48597;49.030;1.822;2023-02-21T06:57:10;101187.00;;;20.06;36.25
62544;BME280;48597;49.030;1.822;2023-02-21T06:59:35;101191.94;;;20.05;36.46
62544;BME280;48597;49.030;1.822;2023-02-21T07:02:00;101193.19;;;20.04;36.27
62544;BME280;48597;49.030;1.822;2023-02-21T07:04:26;101196.41;;;20.06;36.33
62544;BME280;48597;49.030;1.822;2023-02-21T07:06:52;101193.53;;;20.06;36.17
62544;BME280;48597;49.030;1.822;2023-02-21T07:09:17;101189.88;;;20.06;36.23
62544;BME280;48597;49.030;1.822;2023-02-21T07:11:42;101191.56;;;20.03;36.19
62544;BME280;48597;49.030;1.822;2023-02-21T07:14:08;101192.38;;;20.04;36.52
62544;BME280;48597;49.030;1.822;2023-02-21T07:16:34;101194.41;;;20.03;36.37
62544;BME280;48597;49.030;1.822;2023-02-21T07:18:59;101186.72;;;20.00;36.37
62544;BME280;48597;49.030;1.822;2023-02-21T07:21:25;101188.00;;;19.99;36.36
62544;BME280;48597;49.030;1.822;2023-02-21T07:23:51;101183.84;;;20.00;36.43
62544;BME280;48597;49.030;1.822;2023-02-21T07:26:16;101185.56;;;19.97;36.54
62544;BME280;48597;49.030;1.822;2023-02-21T07:28:41;101190.38;;;20.01;36.30
62544;BME280;48597;49.030;1.822;2023-02-21T07:31:07;101194.97;;;19.98;36.39
62544;BME280;48597;49.030;1.822;2023-02-21T07:33:32;101201.50;;;19.98;36.44
62544;BME280;48597;49.030;1.822;2023-02-21T07:35:58;101197.03;;;19.97;36.18
62544;BME280;48597;49.030;1.822;2023-02-21T07:38:24;101195.84;;;19.95;36.21
62544;BME280;48597;49.030;1.822;2023-02-21T07:40:50;101192.53;;;19.96;36.17
62544;BME280;48597;49.030;1.822;2023-02-21T07:43:18;101186.00;;;19.96;36.29
62544;BME280;48597;49.030;1.822;2023-02-21T07:45:43;101190.50;;;19.97;36.35
62544;BME280;48597;49.030;1.822;2023-02-21T07:48:08;101187.63;;;19.97;36.22
62544;BME280;48597;49.030;1.822;2023-02-21T07:50:34;101193.34;;;19.97;36.42
62544;BME280;48597;49.030;1.822;2023-02-21T07:52:59;101194.59;;;19.96;36.48
62544;BME280;48597;49.030;1.822;2023-02-21T07:55:25;101189.31;;;19.94;36.44
62544;BME280;48597;49.030;1.822;2023-02-21T07:57:50;101204.06;;;19.93;36.41
62544;BME280;48597;49.030;1.822;2023-02-21T08:00:15;101195.13;;;19.91;36.52
62544;BME280;48597;49.030;1.822;2023-02-21T08:02:40;101196.34;;;19.90;36.63
62544;BME280;48597;49.030;1.822;2023-02-21T08:05:06;101191.88;;;19.89;36.52
62544;BME280;48597;49.030;1.822;2023-02-21T08:07:32;101194.03;;;19.85;36.72
62544;BME280;48597;49.030;1.822;2023-02-21T08:09:57;101194.47;;;19.83;36.59
62544;BME280;48597;49.030;1.822;2023-02-21T08:12:22;101196.53;;;19.83;36.52
62544;BME280;48597;49.030;1.822;2023-02-21T08:14:49;101192.94;;;19.79;36.40
62544;BME280;48597;49.030;1.822;2023-02-21T08:17:14;101199.91;;;19.78;36.38
62544;BME280;48597;49.030;1.822;2023-02-21T08:19:39;101195.78;;;19.79;36.71
62544;BME280;48597;49.030;1.822;2023-02-21T08:22:04;101196.59;;;19.79;36.53
62544;BME280;48597;49.030;1.822;2023-02-21T08:24:30;101202.31;;;19.79;36.73
62544;BME280;48597;49.030;1.822;2023-02-21T08:26:55;101192.13;;;19.78;36.94
62544;BME280;48597;49.030;1.822;2023-02-21T08:29:20;101189.00;;;19.73;37.03
62544;BME280;48597;49.030;1.822;2023-02-21T08:31:47;101189.44;;;19.71;37.00
62544;BME280;48597;49.030;1.822;2023-02-21T08:34:12;101189.88;;;19.70;37.45
62544;BME280;48597;49.030;1.822;2023-02-21T08:36:39;101192.38;;;19.68;37.59
62544;BME280;48597;49.030;1.822;2023-02-21T08:39:05;101191.19;;;19.65;37.45
62544;BME280;48597;49.030;1.822;2023-02-21T08:41:34;101197.34;;;19.63;37.44
62544;BME280;48597;49.030;1.822;2023-02-21T08:44:00;101194.94;;;19.62;37.11
62544;BME280;48597;49.030;1.822;2023-02-21T08:46:25;101195.38;;;19.60;37.53
62544;BME280;48597;49.030;1.822;2023-02-21T08:48:51;101197.44;;;19.60;37.63
62544;BME280;48597;49.030;1.822;2023-02-21T08:51:16;101197.53;;;19.56;37.69
62544;BME280;48597;49.030;1.822;2023-02-21T08:53:41;101195.91;;;19.55;38.09
62544;BME280;48597;49.030;1.822;2023-02-21T08:56:07;101197.97;;;19.55;38.11
62544;BME280;48597;49.030;1.822;2023-02-21T08:58:32;101205.72;;;19.54;37.86
62544;BME280;48597;49.030;1.822;2023-02-21T09:00:57;101204.91;;;19.54;37.70
62544;BME280;48597;49.030;1.822;2023-02-21T09:03:22;101204.91;;;19.54;38.00
62544;BME280;48597;49.030;1.822;2023-02-21T09:05:48;101207.34;;;19.55;38.02
62544;BME280;48597;49.030;1.822;2023-02-21T09:08:13;101204.91;;;19.54;37.81
62544;BME280;48597;49.030;1.822;2023-02-21T09:10:39;101194.28;;;19.54;37.83
62544;BME280;48597;49.030;1.822;2023-02-21T09:13:11;101200.44;;;19.53;37.70
62544;BME280;48597;49.030;1.822;2023-02-21T09:15:36;101202.06;;;19.54;37.81
62544;BME280;48597;49.030;1.822;2023-02-21T09:18:01;101199.56;;;19.56;38.03
62544;BME280;48597;49.030;1.822;2023-02-21T09:20:27;101201.63;;;19.55;38.17
62544;BME280;48597;49.030;1.822;2023-02-21T09:22:52;101195.91;;;19.55;37.83
62544;BME280;48597;49.030;1.822;2023-02-21T09:25:20;101193.03;;;19.55;37.90
62544;BME280;48597;49.030;1.822;2023-02-21T09:27:46;101191.81;;;19.56;38.15
62544;BME280;48597;49.030;1.822;2023-02-21T09:30:13;101187.69;;;19.57;38.49
62544;BME280;48597;49.030;1.822;2023-02-21T09:32:39;101188.94;;;19.56;38.51
62544;BME280;48597;49.030;1.822;2023-02-21T09:35:04;101187.31;;;19.55;38.11
62544;BME280;48597;49.030;1.822;2023-02-21T09:37:30;101195.09;;;19.55;38.56
62544;BME280;48597;49.030;1.822;2023-02-21T09:39:56;101188.13;;;19.56;38.46
62544;BME280;48597;49.030;1.822;2023-02-21T09:42:23;101193.47;;;19.54;38.36
62544;BME280;48597;49.030;1.822;2023-02-21T09:44:50;101186.53;;;19.55;38.57
62544;BME280;48597;49.030;1.822;2023-02-21T09:47:18;101180.81;;;19.55;38.36
62544;BME280;48597;49.030;1.822;2023-02-21T09:49:48;101175.88;;;19.55;38.26
62544;BME280;48597;49.030;1.822;2023-02-21T09:52:24;101176.69;;;19.56;38.02
62544;BME280;48597;49.030;1.822;2023-02-21T09:54:53;101174.66;;;19.56;38.13
62544;BME280;48597;49.030;1.822;2023-02-21T09:57:20;101170.16;;;19.55;37.92
62544;BME280;48597;49.030;1.822;2023-02-21T09:59:46;101168.13;;;19.56;38.29
62544;BME280;48597;49.030;1.822;2023-02-21T10:02:26;101168.13;;;19.56;38.11
62544;BME280;48597;49.030;1.822;2023-02-21T10:04:58;101170.97;;;19.56;38.44
62544;BME280;48597;49.030;1.822;2023-02-21T10:10:12;101169.28;;;19.58;38.09
62544;BME280;48597;49.030;1.822;2023-02-21T10:12:41;101170.53;;;19.57;38.51
62544;BME280;48597;49.030;1.822;2023-02-21T10:17:36;101174.66;;;19.56;38.63
62544;BME280;48597;49.030;1.822;2023-02-21T10:22:58;101172.59;;;19.57;38.43
62544;BME280;48597;49.030;1.822;2023-02-21T10:25:26;101166.50;;;19.55;38.43
62544;BME280;48597;49.030;1.822;2023-02-21T10:27:53;101162.84;;;19.54;38.23
62544;BME280;48597;49.030;1.822;2023-02-21T10:30:36;101161.59;;;19.55;38.40
62544;BME280;48597;49.030;1.822;2023-02-21T10:33:04;101166.50;;;19.55;38.87
62544;BME280;48597;49.030;1.822;2023-02-21T10:35:35;101171.41;;;19.54;38.50
62544;BME280;48597;49.030;1.822;2023-02-21T10:38:02;101163.66;;;19.55;38.88
62544;BME280;48597;49.030;1.822;2023-02-21T10:46:04;101149.34;;;19.55;38.78
62544;BME280;48597;49.030;1.822;2023-02-21T10:48:36;101139.16;;;19.54;38.95
62544;BME280;48597;49.030;1.822;2023-02-21T10:51:15;101146.06;;;19.56;38.83
62544;BME280;48597;49.030;1.822;2023-02-21T10:53:44;101146.50;;;19.55;38.85
62544;BME280;48597;49.030;1.822;2023-02-21T10:58:39;101143.63;;;19.55;38.96
62544;BME280;48597;49.030;1.822;2023-02-21T11:01:12;101135.06;;;19.55;38.74
62544;BME280;48597;49.030;1.822;2023-02-21T11:03:41;101138.72;;;19.55;38.81
62544;BME280;48597;49.030;1.822;2023-02-21T11:06:07;101136.66;;;19.56;38.75
62544;BME280;48597;49.030;1.822;2023-02-21T11:08:34;101128.91;;;19.56;39.10
62544;BME280;48597;49.030;1.822;2023-02-21T11:11:00;101129.69;;;19.57;38.92
62544;BME280;48597;49.030;1.822;2023-02-21T11:13:28;101125.59;;;19.58;38.80
62544;BME280;48597;49.030;1.822;2023-02-21T11:18:39;101125.16;;;19.59;38.83
62544;BME280;48597;49.030;1.822;2023-02-21T11:21:15;101129.59;;;19.60;38.79
62544;BME280;48597;49.030;1.822;2023-02-21T11:26:15;101110.38;;;19.61;38.37
62544;BME280;48597;49.030;1.822;2023-02-21T11:28:41;101111.19;;;19.61;38.38
62544;BME280;48597;49.030;1.822;2023-02-21T11:33:54;101092.34;;;19.64;38.55
62544;BME280;48597;49.030;1.822;2023-02-21T11:36:21;101093.97;;;19.65;38.39
62544;BME280;48597;49.030;1.822;2023-02-21T11:39:06;101092.72;;;19.66;38.53
62544;BME280;48597;49.030;1.822;2023-02-21T11:41:59;101092.28;;;19.68;38.58
62544;BME280;48597;49.030;1.822;2023-02-21T11:44:35;101084.50;;;19.68;38.58
62544;BME280;48597;49.030;1.822;2023-02-21T11:51:59;101060.31;;;19.73;38.65
62544;BME280;48597;49.030;1.822;2023-02-21T11:54:27;101047.59;;;19.74;38.62
62544;BME280;48597;49.030;1.822;2023-02-21T11:57:13;101047.59;;;19.74;38.67
62544;BME280;48597;49.030;1.822;2023-02-21T11:59:49;101041.41;;;19.75;38.62
62544;BME280;48597;49.030;1.822;2023-02-21T12:18:57;101015.16;;;19.80;38.65
62544;BME280;48597;49.030;1.822;2023-02-21T12:23:39;101006.50;;;19.84;38.67
62544;BME280;48597;49.030;1.822;2023-02-21T12:44:21;100956.84;;;19.90;38.45
62544;BME280;48597;49.030;1.822;2023-02-21T12:52:57;100930.22;;;19.93;38.41
62544;BME280;48597;49.030;1.822;2023-02-21T12:55:29;100923.69;;;19.93;38.40
62544;BME280;48597;49.030;1.822;2023-02-21T13:00:29;100916.28;;;19.95;38.36
62544;BME280;48597;49.030;1.822;2023-02-21T13:05:45;100904.75;;;19.99;38.35
62544;BME280;48597;49.030;1.822;2023-02-21T13:08:15;100899.69;;;20.03;38.31
62544;BME280;48597;49.030;1.822;2023-02-21T13:13:20;100897.88;;;20.80;36.67
62544;BME280;48597;49.030;1.822;2023-02-21T13:15:46;100884.59;;;20.98;36.35
62544;BME280;48597;49.030;1.822;2023-02-21T13:18:17;100881.28;;;21.00;36.51
62544;BME280;48597;49.030;1.822;2023-02-21T13:20:46;100886.28;;;20.71;36.89
62544;BME280;48597;49.030;1.822;2023-02-21T13:28:34;100887.31;;;20.22;37.97
62544;BME280;48597;49.030;1.822;2023-02-21T13:31:03;100879.63;;;20.19;38.12
62544;BME280;48597;49.030;1.822;2023-02-21T13:33:36;100874.34;;;20.18;38.35
62544;BME280;48597;49.030;1.822;2023-02-21T13:36:12;100871.47;;;20.18;38.42
62544;BME280;48597;49.030;1.822;2023-02-21T13:38:39;100859.22;;;20.17;38.45
62544;BME280;48597;49.030;1.822;2023-02-21T13:41:06;100861.66;;;20.19;38.66
62544;BME280;48597;49.030;1.822;2023-02-21T13:43:33;100857.19;;;20.18;38.52
62544;BME280;48597;49.030;1.822;2023-02-21T13:48:45;100844.81;;;20.21;38.33
62544;BME280;48597;49.030;1.822;2023-02-21T13:51:49;100848.50;;;20.21;38.49
62544;BME280;48597;49.030;1.822;2023-02-21T13:54:23;100834.19;;;20.21;38.56
62544;BME280;48597;49.030;1.822;2023-02-21T13:56:49;100828.81;;;20.23;38.38
62544;BME280;48597;49.030;1.822;2023-02-21T14:01:48;100817.38;;;20.23;38.60
62544;BME280;48597;49.030;1.822;2023-02-21T14:06:57;100814.81;;;20.25;38.38
62544;BME280;48597;49.030;1.822;2023-02-21T14:09:23;100812.75;;;20.26;38.50
62544;BME280;48597;49.030;1.822;2023-02-21T14:11:49;100801.31;;;20.26;38.30
62544;BME280;48597;49.030;1.822;2023-02-21T14:14:26;100800.06;;;20.27;38.54
62544;BME280;48597;49.030;1.822;2023-02-21T14:17:02;100800.88;;;20.27;38.41
62544;BME280;48597;49.030;1.822;2023-02-21T14:22:02;100793.88;;;20.28;38.28
62544;BME280;48597;49.030;1.822;2023-02-21T14:24:33;100787.34;;;20.28;38.32
62544;BME280;48597;49.030;1.822;2023-02-21T14:34:34;100771.34;;;20.30;38.53
62544;BME280;48597;49.030;1.822;2023-02-21T14:37:04;100775.00;;;20.31;38.62
62544;BME280;48597;49.030;1.822;2023-02-21T14:39:36;100768.47;;;20.30;38.26
62544;BME280;48597;49.030;1.822;2023-02-21T14:44:39;100761.50;;;20.31;38.52
62544;BME280;48597;49.030;1.822;2023-02-21T15:00:19;100756.13;;;20.33;38.54
62544;BME280;48597;49.030;1.822;2023-02-21T15:02:58;100759.78;;;20.34;38.57
62544;BME280;48597;49.030;1.822;2023-02-21T15:05:36;100753.25;;;20.33;38.60
62544;BME280;48597;49.030;1.822;2023-02-21T15:08:14;100747.53;;;20.33;38.70
62544;BME280;48597;49.030;1.822;2023-02-21T15:10:41;100744.66;;;20.33;38.67
62544;BME280;48597;49.030;1.822;2023-02-21T15:13:19;100743.88;;;20.33;38.59
62544;BME280;48597;49.030;1.822;2023-02-21T15:15:44;100738.94;;;20.33;38.46
62544;BME280;48597;49.030;1.822;2023-02-21T15:18:26;100736.09;;;20.33;38.51
62544;BME280;48597;49.030;1.822;2023-02-21T15:23:36;100733.22;;;20.33;38.58
62544;BME280;48597;49.030;1.822;2023-02-21T15:26:21;100735.28;;;20.33;38.51
62544;BME280;48597;49.030;1.822;2023-02-21T15:29:04;100731.16;;;20.34;38.71
62544;BME280;48597;49.030;1.822;2023-02-21T15:31:37;100735.63;;;20.35;38.92
62544;BME280;48597;49.030;1.822;2023-02-21T15:34:03;100725.44;;;20.34;38.78
62544;BME280;48597;49.030;1.822;2023-02-21T15:36:28;100731.97;;;20.34;38.77
62544;BME280;48597;49.030;1.822;2023-02-21T15:41:26;100721.31;;;20.35;38.96
62544;BME280;48597;49.030;1.822;2023-02-21T15:43:53;100727.03;;;20.35;38.65
62544;BME280;48597;49.030;1.822;2023-02-21T15:46:21;100712.72;;;20.35;38.72